القامشلي, سوريا

08:15 PM EEST on سبتهبر 26, 2016 (GMT +0300)
Batman Air Base | | Change Station

Elev 1821 ft 37.93 °N, 41.12 °E | Updated 25 minutes ago

Clear
صافية
70 °F
Feels Like 70 °F
N
2
ريح متغير ريح from متغير

هذا اليوم
High -- | Low -- °F
--% Chance of Precip.
Yesterday
High -- | Low -- °F
Precip. -- في
الضغط 29.92 في
وضوح الرؤية -9999.0 أميال
سحابات
نقطة الندى 39 °F
الرطوبة 33%
Rainfall 0.00 في
عمق الثلج Not available.
6:06 AM 6:05 PM
الهلال الأخير, 17% visible
METAR LTCJ 261650Z VRB02KT CAVOK 21/04 Q1013 RMK RWY20 20003KT
الضغط 29.92 في
وضوح الرؤية -9999.0 أميال
سحابات
نقطة الندى 39 °F
الرطوبة 33%
Rainfall 0.00 في
عمق الثلج Not available.
6:06 AM 6:05 PM
الهلال الأخير, 17% visible
METAR LTCJ 261650Z VRB02KT CAVOK 21/04 Q1013 RMK RWY20 20003KT

10-Day Weather Forecast

No radar image for this location.
×

Almanac

علم الفلك

Sep. 26, 2016 Rise Set
Actual Time
Civil Twilight
Nautical Twilight
Astronomical Twilight
قمر
Length Of Visible Light
طول الیوم
Tomorrow will be .
, % of the Moon is Illuminated

Today's Extremes

Country Highs Country Lows

Community

WunderPhotos

Upload Photos

1,941,930 photos uploaded!

WunderBlog® & News

Nearby

جودة الهواء

  جودة الهواء AQ Index Pollutant
Not available.

عمق الثلج

Station Depth Elevation

Earthquake Activity

City Distance Mag. Time & Date
Minimum magnitude displayed is 2.5.

Coastal Water Temperatures

مكان درجات الحرارة

Stations

Nearby Weather Stations

Station Location الحرارة رياح باردة نقطة الندى الرطوبة ريح Precip. Elev تحديث Type